Time;durP1;ratioP1;P1;durP2;ratioP2;P2;SDS_P1;SDS_P2;PMS_P1;PMS_P2;Temp;Humidity;BMP_temperature;BMP_pressure;BME280_temperature;BME280_humidity;BME280_pressure;Samples;Min_cycle;Max_cycle;Signal;HPM_P1;HPM_P2
2024/01/20 00:00:12;;;;;;;7.27;6.40;;;;;;;19.01;43.85;98474.97;5062620;28;20226;-24
2024/01/20 00:02:39;;;;;;;7.33;6.30;;;;;;;19.01;43.76;98464.78;5066063;28;20241;-22
2024/01/20 00:05:06;;;;;;;6.63;5.93;;;;;;;19.00;43.68;98471.53;5069273;28;20581;-24
2024/01/20 00:07:33;;;;;;;7.00;6.20;;;;;;;19.01;43.84;98467.34;5066709;28;20202;-24
2024/01/20 00:09:59;;;;;;;8.07;6.07;;;;;;;19.00;43.67;98468.13;5059688;28;20217;-24
2024/01/20 00:12:26;;;;;;;7.47;5.80;;;;;;;18.99;43.87;98462.16;5066095;28;20210;-24
2024/01/20 00:14:53;;;;;;;7.43;6.23;;;;;;;19.00;43.55;98465.56;5070308;28;20426;-30
2024/01/20 00:17:19;;;;;;;8.37;6.20;;;;;;;19.00;43.52;98461.34;5069166;28;20227;-25
2024/01/20 00:19:53;;;;;;;8.07;6.60;;;;;;;19.01;43.58;98467.34;5063892;28;20568;-25
2024/01/20 00:22:21;;;;;;;12.23;6.40;;;;;;;19.01;43.71;98467.34;5056373;28;20220;-24
2024/01/20 00:24:49;;;;;;;7.53;6.47;;;;;;;19.00;43.77;98474.09;5070140;28;20227;-24
2024/01/20 00:27:16;;;;;;;8.07;6.40;;;;;;;19.00;43.09;98470.66;5070970;28;20289;-24
2024/01/20 00:29:43;;;;;;;6.60;5.47;;;;;;;18.99;43.53;98469.81;5069324;28;20251;-24
2024/01/20 00:32:10;;;;;;;6.90;6.20;;;;;;;18.98;43.51;98473.13;5069264;28;20207;-25
2024/01/20 00:34:37;;;;;;;6.83;5.83;;;;;;;18.98;43.26;98478.22;5065490;28;20212;-24
2024/01/20 00:37:21;;;;;;;7.27;6.17;;;;;;;18.99;43.28;98484.19;5059377;28;20519;-25
2024/01/20 00:39:48;;;;;;;8.57;6.63;;;;;;;18.97;43.29;98480.69;5069161;28;20701;-24
2024/01/20 00:42:14;;;;;;;7.00;6.23;;;;;;;18.96;43.53;98478.94;5058539;28;20701;-24
2024/01/20 00:44:41;;;;;;;10.57;6.57;;;;;;;18.97;43.36;98473.03;5068232;28;20261;-24
2024/01/20 00:47:08;;;;;;;7.13;6.20;;;;;;;18.95;44.00;98478.06;5070148;28;20196;-24
2024/01/20 00:49:34;;;;;;;7.80;6.23;;;;;;;18.96;43.36;98484.03;5068589;28;20266;-24
2024/01/20 00:52:01;;;;;;;8.00;6.20;;;;;;;18.95;43.23;98480.59;5070049;28;20193;-24
2024/01/20 00:54:28;;;;;;;7.43;6.40;;;;;;;18.95;43.10;98485.69;5070059;28;20197;-25
2024/01/20 00:56:54;;;;;;;7.80;6.27;;;;;;;18.96;43.47;98481.50;5070891;28;20250;-24
2024/01/20 00:59:21;;;;;;;6.03;5.40;;;;;;;18.95;43.20;98485.69;5068288;28;20216;-24
2024/01/20 01:01:47;;;;;;;6.90;6.00;;;;;;;18.96;43.45;98484.94;5070705;28;20212;-24
2024/01/20 01:04:14;;;;;;;6.70;6.00;;;;;;;18.96;43.38;98487.47;5065032;28;20204;-25
2024/01/20 01:06:41;;;;;;;8.40;6.37;;;;;;;18.97;43.61;98489.22;5071832;28;20666;-24
2024/01/20 01:09:08;;;;;;;7.37;6.37;;;;;;;18.97;43.59;98488.31;5069388;28;20220;-24
2024/01/20 01:11:34;;;;;;;7.57;6.37;;;;;;;18.96;43.52;98490.03;5071131;28;20196;-25
2024/01/20 01:14:01;;;;;;;6.47;5.87;;;;;;;18.95;43.24;98495.03;5070877;28;20196;-24
2024/01/20 01:16:28;;;;;;;7.10;6.00;;;;;;;18.95;43.40;98493.34;5074460;28;20554;-24
2024/01/20 01:18:54;;;;;;;7.13;6.27;;;;;;;18.94;42.95;98491.59;5074618;28;20293;-24
2024/01/20 01:21:21;;;;;;;7.23;6.27;;;;;;;18.93;43.12;98489.84;5072552;28;20273;-25
2024/01/20 01:23:47;;;;;;;8.03;6.40;;;;;;;18.92;43.21;98485.53;5072610;28;20658;-25
2024/01/20 01:26:15;;;;;;;6.90;5.80;;;;;;;18.93;43.15;98500.03;5072948;28;20239;-24
2024/01/20 01:28:42;;;;;;;6.60;5.93;;;;;;;18.93;43.56;98492.41;5066569;28;20643;-26
2024/01/20 01:31:08;;;;;;;6.40;5.50;;;;;;;18.93;43.15;98501.69;5084450;28;20327;-25
2024/01/20 01:33:36;;;;;;;7.17;6.20;;;;;;;18.92;43.41;98507.59;5065293;28;20201;-25
2024/01/20 01:36:03;;;;;;;7.53;6.17;;;;;;;18.91;43.15;98516.91;5070406;28;20200;-25
2024/01/20 01:38:30;;;;;;;6.57;5.70;;;;;;;18.92;43.48;98533.06;5065262;28;20196;-24
2024/01/20 01:40:57;;;;;;;5.90;5.30;;;;;;;18.93;43.20;98545.88;5069230;28;20216;-23
2024/01/20 01:43:25;;;;;;;7.03;6.33;;;;;;;18.93;43.22;98543.34;5068611;28;20205;-23
2024/01/20 01:45:51;;;;;;;6.73;5.87;;;;;;;18.94;43.33;98539.09;5070750;28;20202;-24
2024/01/20 01:48:18;;;;;;;6.67;5.67;;;;;;;18.95;42.98;98538.34;5070569;28;20209;-24
2024/01/20 01:50:45;;;;;;;7.90;6.07;;;;;;;18.94;43.34;98541.66;5069814;28;20701;-24
2024/01/20 01:53:11;;;;;;;6.70;5.50;;;;;;;18.94;42.97;98536.56;5070991;28;20225;-24
2024/01/20 01:55:38;;;;;;;7.40;6.17;;;;;;;18.92;43.03;98528.84;5064154;28;20250;-25
2024/01/20 01:58:04;;;;;;;6.57;5.83;;;;;;;18.91;43.12;98527.09;5069376;28;20239;-24
2024/01/20 02:00:31;;;;;;;7.30;6.27;;;;;;;18.92;43.21;98530.53;5070991;28;20216;-24
2024/01/20 02:02:58;;;;;;;8.03;6.07;;;;;;;18.92;42.78;98526.28;5067572;28;20303;-24
2024/01/20 02:05:24;;;;;;;6.80;5.77;;;;;;;18.91;43.17;98522.00;5069939;28;20731;-26
2024/01/20 02:07:51;;;;;;;7.17;6.17;;;;;;;18.88;43.12;98516.72;5072677;28;20200;-25
2024/01/20 02:10:18;;;;;;;6.63;5.93;;;;;;;18.90;42.87;98521.91;5063910;28;20224;-24
2024/01/20 02:12:45;;;;;;;7.37;6.10;;;;;;;18.91;43.03;98523.66;5070777;28;20201;-24
2024/01/20 02:15:12;;;;;;;8.10;6.30;;;;;;;18.90;43.05;98522.81;5067072;28;20207;-24
2024/01/20 02:17:53;;;;;;;6.10;5.50;;;;;;;18.91;43.04;98528.75;5056636;28;20250;-24
2024/01/20 02:20:20;;;;;;;6.70;5.90;;;;;;;18.89;43.08;98523.56;5064129;28;20625;-24
2024/01/20 02:22:47;;;;;;;7.57;6.00;;;;;;;18.92;42.71;98522.88;5071604;28;20260;-24
2024/01/20 02:25:14;;;;;;;6.27;5.67;;;;;;;18.92;43.26;98520.34;5067616;28;20250;-24
2024/01/20 02:27:40;;;;;;;6.23;5.30;;;;;;;18.90;43.29;98527.00;5065229;28;20589;-24
2024/01/20 02:30:07;;;;;;;5.93;5.27;;;;;;;18.93;42.96;98534.81;5070108;28;20649;-24
2024/01/20 02:32:34;;;;;;;5.90;5.30;;;;;;;18.93;43.26;98537.34;5070279;28;20199;-24
2024/01/20 02:35:01;;;;;;;6.87;5.67;;;;;;;18.92;42.96;98539.03;5071714;28;20697;-24
2024/01/20 02:37:27;;;;;;;6.40;5.63;;;;;;;18.85;42.83;98511.47;5065176;28;20584;-24
2024/01/20 02:39:54;;;;;;;5.43;4.93;;;;;;;18.86;42.59;98512.34;5071753;28;20670;-24
2024/01/20 02:42:20;;;;;;;6.67;5.97;;;;;;;18.90;42.60;98522.81;5064402;28;20254;-24
2024/01/20 02:44:47;;;;;;;6.20;5.60;;;;;;;18.89;43.00;98520.16;5071626;28;20196;-24
2024/01/20 02:47:14;;;;;;;6.33;5.63;;;;;;;18.88;42.46;98528.56;5071028;28;20232;-24
2024/01/20 02:49:40;;;;;;;6.30;5.70;;;;;;;18.89;42.81;98530.34;5069388;28;20220;-23
2024/01/20 02:52:07;;;;;;;6.30;5.70;;;;;;;18.87;42.58;98530.28;5063840;28;20334;-24
2024/01/20 02:54:34;;;;;;;6.40;5.80;;;;;;;18.88;42.44;98533.66;5071016;28;20197;-25
2024/01/20 02:57:00;;;;;;;6.23;5.57;;;;;;;18.89;42.87;98538.00;5071155;28;20200;-24
2024/01/20 02:59:27;;;;;;;5.57;5.00;;;;;;;18.88;42.59;98541.31;5070948;28;20216;-24
2024/01/20 03:01:54;;;;;;;6.47;5.77;;;;;;;18.88;42.76;98536.22;5070694;28;20224;-24
2024/01/20 03:04:20;;;;;;;6.63;5.63;;;;;;;18.83;42.66;98520.69;5060154;28;20612;-24
2024/01/20 03:06:47;;;;;;;5.93;5.37;;;;;;;18.87;42.84;98530.28;5066222;28;20744;-23
2024/01/20 03:09:14;;;;;;;6.03;5.30;;;;;;;18.88;42.37;98537.09;5071953;28;20224;-24
2024/01/20 03:11:44;;;;;;;6.17;5.57;;;;;;;18.89;42.55;98532.91;5069854;28;20283;-25
2024/01/20 03:14:11;;;;;;;6.03;5.27;;;;;;;18.88;42.92;98529.47;5067310;28;20291;-25
2024/01/20 03:16:38;;;;;;;6.43;5.77;;;;;;;18.90;42.93;98534.66;5066195;28;20297;-23
2024/01/20 03:19:05;;;;;;;6.20;5.60;;;;;;;18.89;42.83;98530.34;5068380;28;20216;-25
2024/01/20 03:21:33;;;;;;;6.03;5.43;;;;;;;18.87;42.67;98532.81;5067978;28;20223;-24
2024/01/20 03:24:00;;;;;;;5.93;5.33;;;;;;;18.87;42.50;98548.09;5069623;28;20208;-24
2024/01/20 03:26:27;;;;;;;5.97;5.30;;;;;;;18.86;42.66;98553.09;5071072;28;20277;-24
2024/01/20 03:28:53;;;;;;;5.83;5.33;;;;;;;18.87;42.35;98549.75;5069567;28;20231;-24
2024/01/20 03:31:20;;;;;;;5.87;5.27;;;;;;;18.86;42.67;98553.09;5060039;28;20312;-24
2024/01/20 03:33:46;;;;;;;6.53;5.70;;;;;;;18.87;42.13;98547.22;5067514;28;20196;-24
2024/01/20 03:36:13;;;;;;;6.40;5.80;;;;;;;18.86;42.55;98543.78;5066711;28;20200;-24
2024/01/20 03:38:40;;;;;;;6.80;5.70;;;;;;;18.87;42.75;98544.66;5068666;28;20295;-25
2024/01/20 03:41:06;;;;;;;6.87;6.00;;;;;;;18.86;42.14;98542.91;5058335;28;20215;-25
2024/01/20 03:43:33;;;;;;;7.30;5.73;;;;;;;18.87;42.21;98549.75;5064689;28;20201;-24
2024/01/20 03:46:00;;;;;;;6.07;5.57;;;;;;;18.87;42.73;98545.56;5067348;28;20200;-25
2024/01/20 03:48:26;;;;;;;5.97;5.37;;;;;;;18.86;42.66;98543.78;5065674;28;20210;-24
2024/01/20 03:50:53;;;;;;;6.37;5.63;;;;;;;18.88;42.99;98554.03;5066695;28;20235;-24
2024/01/20 03:53:20;;;;;;;5.53;4.97;;;;;;;18.88;42.58;98561.69;5067119;28;20610;-24
2024/01/20 03:55:46;;;;;;;6.10;5.50;;;;;;;18.88;42.82;98567.66;5067307;28;20204;-24
2024/01/20 03:58:13;;;;;;;5.87;5.23;;;;;;;18.88;42.47;98567.66;5070780;28;20211;-25
2024/01/20 04:00:39;;;;;;;6.87;5.90;;;;;;;18.87;42.53;98568.47;5058550;28;20221;-25
2024/01/20 04:03:06;;;;;;;5.67;5.10;;;;;;;18.87;42.45;98570.13;5067995;28;20216;-24
2024/01/20 04:05:33;;;;;;;6.63;5.10;;;;;;;18.87;42.44;98575.22;5068003;28;20283;-24
2024/01/20 04:07:59;;;;;;;6.10;5.50;;;;;;;18.86;42.32;98581.97;5061771;28;20654;-24
2024/01/20 04:10:26;;;;;;;6.17;5.47;;;;;;;18.85;42.44;98575.13;5066621;28;20778;-25
2024/01/20 04:12:53;;;;;;;6.40;5.70;;;;;;;18.85;42.21;98580.22;5063279;28;20245;-24
2024/01/20 04:15:19;;;;;;;5.90;5.30;;;;;;;18.85;42.87;98585.31;5067498;28;20281;-24
2024/01/20 04:17:46;;;;;;;5.77;5.13;;;;;;;18.86;42.57;98586.22;5067371;28;20684;-24
2024/01/20 04:20:13;;;;;;;6.20;5.60;;;;;;;18.86;42.47;98588.75;5070578;28;20227;-24
2024/01/20 04:22:39;;;;;;;6.90;5.60;;;;;;;18.86;42.58;98588.75;5067047;28;20304;-24
2024/01/20 04:25:06;;;;;;;5.50;4.93;;;;;;;18.85;42.38;98585.31;5067739;28;20584;-24
2024/01/20 04:27:40;;;;;;;6.17;5.53;;;;;;;18.86;42.59;98592.16;5063320;28;20203;-23
2024/01/20 04:30:10;;;;;;;5.87;5.27;;;;;;;18.85;42.59;98590.41;5067857;28;20232;-24
2024/01/20 04:32:37;;;;;;;6.17;5.23;;;;;;;18.87;42.35;98598.16;5063054;28;20653;-24
2024/01/20 04:35:07;;;;;;;5.57;5.00;;;;;;;18.87;42.62;98598.16;5069581;28;20196;-29
2024/01/20 04:37:34;;;;;;;5.73;5.07;;;;;;;18.88;42.73;98594.81;5061204;28;20708;-26
2024/01/20 04:40:00;;;;;;;5.83;5.30;;;;;;;18.87;42.41;98587.97;5064960;28;20467;-25
2024/01/20 04:42:27;;;;;;;6.20;5.60;;;;;;;18.87;42.04;98603.25;5067679;28;20208;-25
2024/01/20 04:44:54;;;;;;;5.80;5.30;;;;;;;18.85;42.22;98603.16;5073305;28;20196;-29
2024/01/20 04:47:21;;;;;;;6.33;5.70;;;;;;;18.85;42.47;98613.34;5066704;28;20464;-25
2024/01/20 04:49:51;;;;;;;6.03;5.43;;;;;;;18.85;42.10;98617.56;5066470;28;20254;-25
2024/01/20 04:52:19;;;;;;;5.53;5.03;;;;;;;18.83;42.42;98620.00;5071530;28;20200;-25
2024/01/20 04:54:45;;;;;;;6.20;5.10;;;;;;;18.84;42.28;98629.44;5080503;28;20261;-25
2024/01/20 04:57:12;;;;;;;6.10;5.03;;;;;;;18.83;42.30;98627.66;5070235;28;20658;-25
2024/01/20 04:59:38;;;;;;;6.33;5.40;;;;;;;18.83;42.50;98631.88;5071230;28;20216;-27
2024/01/20 05:02:05;;;;;;;5.67;5.17;;;;;;;18.83;42.08;98626.78;5066765;28;20243;-29
2024/01/20 05:04:31;;;;;;;5.93;5.30;;;;;;;18.74;42.53;98614.38;5071687;28;20296;-26
2024/01/20 05:06:58;;;;;;;5.60;5.03;;;;;;;18.83;42.41;98634.44;5069653;28;20203;-25
2024/01/20 05:09:25;;;;;;;5.57;5.00;;;;;;;18.83;42.59;98642.94;5073084;28;20223;-27
2024/01/20 05:11:51;;;;;;;5.80;5.30;;;;;;;18.83;42.40;98644.63;5061033;28;20193;-25
2024/01/20 05:14:18;;;;;;;4.93;4.53;;;;;;;18.85;42.78;98650.66;5067195;28;20228;-25
2024/01/20 05:16:45;;;;;;;5.77;5.10;;;;;;;18.84;42.64;98654.91;5073740;28;20197;-25
2024/01/20 05:19:11;;;;;;;5.47;4.93;;;;;;;18.83;42.45;98654.81;5071381;28;20220;-26
2024/01/20 05:21:38;;;;;;;5.70;5.13;;;;;;;18.84;42.52;98659.09;5066597;28;20196;-25
2024/01/20 05:24:05;;;;;;;5.63;5.13;;;;;;;18.83;42.24;98659.91;5071165;28;20207;-25
2024/01/20 05:26:32;;;;;;;5.63;5.00;;;;;;;18.83;41.82;98657.34;5070036;28;20197;-25
2024/01/20 05:28:59;;;;;;;6.43;5.50;;;;;;;18.82;42.46;98660.66;5078369;28;20227;-26
2024/01/20 05:31:31;;;;;;;5.87;5.27;;;;;;;18.80;42.18;98663.13;5069109;28;20205;-26
2024/01/20 05:33:58;;;;;;;5.70;5.10;;;;;;;18.82;42.24;98664.09;5063349;28;20200;-26
2024/01/20 05:36:25;;;;;;;5.70;5.20;;;;;;;18.80;41.67;98664.81;5065707;28;20205;-25
2024/01/20 05:38:52;;;;;;;5.73;5.20;;;;;;;18.74;41.87;98649.19;5070871;28;20621;-25
2024/01/20 05:41:18;;;;;;;7.00;5.50;;;;;;;18.80;42.26;98663.13;5070304;28;20654;-26
2024/01/20 05:43:45;;;;;;;5.60;5.10;;;;;;;18.78;42.56;98662.19;5067676;28;20273;-25
2024/01/20 05:46:11;;;;;;;5.90;5.27;;;;;;;18.76;42.01;98671.41;5064494;28;20196;-25
2024/01/20 05:48:38;;;;;;;5.37;4.87;;;;;;;18.79;42.38;98674.13;5072614;28;20192;-25
2024/01/20 05:51:05;;;;;;;5.90;4.73;;;;;;;18.79;42.38;98673.22;5071113;28;20223;-26
2024/01/20 05:53:32;;;;;;;5.30;4.80;;;;;;;18.80;42.78;98673.31;5074047;28;20192;-25
2024/01/20 05:55:58;;;;;;;5.07;4.57;;;;;;;18.77;42.67;98665.50;5070692;28;20205;-25
2024/01/20 05:58:25;;;;;;;5.47;4.97;;;;;;;18.76;42.49;98666.31;5070554;28;20203;-25
2024/01/20 06:00:52;;;;;;;5.30;4.80;;;;;;;18.82;43.06;98689.56;5073692;28;20216;-25
2024/01/20 06:03:18;;;;;;;5.53;4.83;;;;;;;18.82;42.30;98686.13;5075902;28;20216;-25
2024/01/20 06:05:45;;;;;;;5.90;5.27;;;;;;;18.78;42.28;98690.19;5073566;28;20200;-27
2024/01/20 06:08:12;;;;;;;5.43;4.93;;;;;;;18.79;42.35;98691.94;5074434;28;20287;-26
2024/01/20 06:10:39;;;;;;;5.37;4.87;;;;;;;18.79;42.03;98702.13;5073693;28;20281;-26
2024/01/20 06:13:05;;;;;;;5.77;5.20;;;;;;;18.78;42.53;98705.47;5071216;28;20417;-29
2024/01/20 06:15:32;;;;;;;5.07;4.67;;;;;;;18.78;41.95;98712.22;5073571;28;20243;-25
2024/01/20 06:17:59;;;;;;;6.20;5.40;;;;;;;18.78;42.22;98717.31;5071844;28;20621;-25
2024/01/20 06:20:26;;;;;;;5.27;4.77;;;;;;;18.78;41.95;98718.22;5073913;28;20302;-25
2024/01/20 06:22:52;;;;;;;5.77;5.17;;;;;;;18.77;41.78;98713.88;5066887;28;20216;-25
2024/01/20 06:25:19;;;;;;;5.67;5.00;;;;;;;18.77;42.01;98718.97;5065976;28;20196;-25
2024/01/20 06:27:46;;;;;;;5.53;5.03;;;;;;;18.77;41.48;98723.22;5073694;28;20262;-25
2024/01/20 06:30:12;;;;;;;5.33;4.83;;;;;;;18.78;42.17;98727.50;5073224;28;20242;-29
2024/01/20 06:32:39;;;;;;;6.70;5.17;;;;;;;18.74;42.29;98723.91;5071160;28;20568;-25
2024/01/20 06:35:07;;;;;;;5.27;4.77;;;;;;;18.78;42.21;98724.97;5068998;28;20197;-25
2024/01/20 06:37:34;;;;;;;4.67;4.27;;;;;;;18.78;42.29;98722.41;5075335;28;20206;-25
2024/01/20 06:40:00;;;;;;;5.30;4.80;;;;;;;18.78;42.44;98723.31;5072107;28;20220;-26
2024/01/20 06:42:27;;;;;;;5.83;5.00;;;;;;;18.78;41.93;98722.41;5074473;28;20596;-25
2024/01/20 06:44:54;;;;;;;5.80;5.20;;;;;;;18.77;41.53;98718.97;5071254;28;20196;-25
2024/01/20 06:47:23;;;;;;;5.50;5.00;;;;;;;18.79;42.38;98730.16;5082634;28;20204;-25
2024/01/20 06:49:50;;;;;;;5.23;4.73;;;;;;;18.81;41.96;98727.69;5068177;28;20274;-25
2024/01/20 06:52:16;;;;;;;6.07;5.47;;;;;;;18.81;41.74;98727.69;5072158;28;20195;-25
2024/01/20 06:54:43;;;;;;;5.70;5.20;;;;;;;18.82;41.54;98726.88;5073212;28;20196;-26
2024/01/20 06:57:10;;;;;;;5.40;4.90;;;;;;;18.81;41.91;98731.13;5075514;28;20197;-25
2024/01/20 06:59:37;;;;;;;5.63;5.13;;;;;;;18.81;41.72;98736.22;5072149;28;20589;-25
2024/01/20 07:02:04;;;;;;;5.47;4.97;;;;;;;18.83;41.27;98738.84;5074143;28;20203;-29
2024/01/20 07:04:30;;;;;;;5.97;5.40;;;;;;;18.83;41.42;98739.72;5076568;28;20197;-25
2024/01/20 07:06:57;;;;;;;6.90;6.27;;;;;;;18.85;41.09;98743.25;5065019;28;20201;-25
2024/01/20 07:09:25;;;;;;;6.10;5.50;;;;;;;18.82;41.40;98740.50;5072106;28;20217;-28
2024/01/20 07:11:55;;;;;;;5.97;5.37;;;;;;;18.83;41.45;98739.72;5072772;28;20292;-25
2024/01/20 07:14:24;;;;;;;6.07;5.50;;;;;;;18.85;41.45;98744.91;5072279;28;20219;-25
2024/01/20 07:16:51;;;;;;;5.20;4.70;;;;;;;18.85;41.70;98743.25;5072713;28;20250;-25
2024/01/20 07:19:17;;;;;;;6.00;5.40;;;;;;;18.80;41.75;98731.91;5064276;28;20224;-25
2024/01/20 07:21:44;;;;;;;5.30;4.80;;;;;;;18.85;41.68;98742.34;5072538;28;20196;-25
2024/01/20 07:24:11;;;;;;;6.63;5.63;;;;;;;18.77;41.64;98735.94;5071395;28;20216;-25
2024/01/20 07:26:37;;;;;;;6.43;5.83;;;;;;;18.82;41.82;98758.34;5054482;28;20212;-25
2024/01/20 07:29:04;;;;;;;10.73;8.83;;;;;;;18.82;37.36;98770.19;5060073;28;20273;-25
2024/01/20 07:31:30;;;;;;;16.67;14.60;;;;;;;18.75;32.04;98773.16;5072290;28;20572;-25
2024/01/20 07:33:57;;;;;;;19.47;15.57;;;;;;;18.67;29.75;98776.91;5072112;28;20242;-28
2024/01/20 07:36:24;;;;;;;20.97;17.40;;;;;;;18.58;28.92;98787.44;5079958;28;20207;-26
2024/01/20 07:38:50;;;;;;;21.67;18.13;;;;;;;18.50;29.32;98778.44;5072189;28;20203;-25
2024/01/20 07:41:18;;;;;;;20.40;18.17;;;;;;;18.49;30.89;98788.53;5072730;28;20253;-25
2024/01/20 07:43:44;;;;;;;19.70;17.33;;;;;;;18.46;32.11;98789.25;5072366;28;20220;-25
2024/01/20 07:46:12;;;;;;;18.27;16.07;;;;;;;18.44;32.68;98793.34;5076091;28;20654;-25
2024/01/20 07:48:38;;;;;;;20.07;16.90;;;;;;;18.44;34.06;98793.34;5068977;28;20203;-25
2024/01/20 07:51:05;;;;;;;17.03;14.97;;;;;;;18.45;34.95;98792.56;5078311;28;20191;-25
2024/01/20 07:53:32;;;;;;;20.20;15.73;;;;;;;18.46;35.57;98798.53;5066218;28;20200;-27
2024/01/20 07:55:58;;;;;;;17.03;15.23;;;;;;;18.47;36.17;98790.97;5073239;28;20200;-25
2024/01/20 07:58:25;;;;;;;17.70;15.20;;;;;;;18.49;36.36;98803.81;5066966;28;20276;-25
2024/01/20 08:00:51;;;;;;;16.97;14.73;;;;;;;18.50;36.29;98797.94;5073580;28;20216;-25
2024/01/20 08:03:18;;;;;;;15.50;13.87;;;;;;;18.45;36.41;98795.13;5079271;28;20228;-28
2024/01/20 08:05:45;;;;;;;18.40;15.20;;;;;;;18.51;36.95;98802.25;5072128;28;20196;-27
2024/01/20 08:08:12;;;;;;;16.17;14.47;;;;;;;18.52;37.32;98804.00;5072496;28;20208;-25
2024/01/20 08:10:39;;;;;;;16.43;14.03;;;;;;;18.52;37.62;98801.44;5069016;28;20273;-26
2024/01/20 08:13:05;;;;;;;15.70;13.97;;;;;;;18.53;38.06;98809.19;5071809;28;20196;-25
2024/01/20 08:15:32;;;;;;;15.43;13.77;;;;;;;18.54;38.80;98826.22;5071959;28;20246;-25
2024/01/20 08:17:59;;;;;;;14.93;13.23;;;;;;;18.55;38.64;98819.47;5072246;28;20643;-26
2024/01/20 08:20:26;;;;;;;19.03;13.37;;;;;;;18.55;39.06;98825.44;5071657;28;20597;-25
2024/01/20 08:22:52;;;;;;;13.70;12.13;;;;;;;18.56;39.17;98828.88;5066747;28;20714;-25
2024/01/20 08:25:19;;;;;;;14.27;12.77;;;;;;;18.54;39.15;98827.88;5069071;28;20200;-26
2024/01/20 08:27:46;;;;;;;14.07;12.57;;;;;;;18.59;39.21;98834.16;5064219;28;20192;-25
2024/01/20 08:30:13;;;;;;;18.90;12.70;;;;;;;18.58;39.68;98830.72;5064723;28;20227;-25
2024/01/20 08:32:40;;;;;;;13.43;12.03;;;;;;;18.57;39.51;98826.41;5063541;28;20634;-28
2024/01/20 08:35:08;;;;;;;13.23;11.93;;;;;;;18.62;39.80;98829.25;5066003;28;20193;-25
2024/01/20 08:37:35;;;;;;;13.27;11.93;;;;;;;18.61;39.66;98827.47;5070168;28;20228;-25
2024/01/20 08:40:02;;;;;;;13.77;11.23;;;;;;;18.65;39.46;98834.53;5076668;28;20285;-25
2024/01/20 08:42:29;;;;;;;19.13;12.20;;;;;;;18.66;39.86;98838.81;5071496;28;20679;-25
2024/01/20 08:44:55;;;;;;;12.60;10.57;;;;;;;18.65;39.85;98837.94;5071210;28;20196;-25
2024/01/20 08:47:22;;;;;;;13.07;11.63;;;;;;;18.65;39.81;98839.63;5068087;28;20244;-26
2024/01/20 08:49:51;;;;;;;12.10;10.73;;;;;;;18.66;39.86;98841.38;5070387;28;20212;-26
2024/01/20 08:52:18;;;;;;;13.83;10.77;;;;;;;18.65;40.37;98843.03;5070961;28;20205;-25
2024/01/20 08:54:45;;;;;;;11.67;10.17;;;;;;;18.64;40.20;98845.47;5071247;28;20281;-25
2024/01/20 08:57:11;;;;;;;11.63;10.23;;;;;;;18.63;40.21;98848.81;5076053;28;20643;-25
2024/01/20 08:59:38;;;;;;;12.90;10.33;;;;;;;18.64;40.31;98854.00;5069660;28;20220;-25
2024/01/20 09:02:05;;;;;;;12.47;10.53;;;;;;;18.66;40.34;98852.44;5071232;28;20584;-25
2024/01/20 09:04:32;;;;;;;11.70;10.43;;;;;;;18.65;40.56;98847.25;5071179;28;20693;-25
2024/01/20 09:06:59;;;;;;;10.80;9.70;;;;;;;18.66;40.77;98857.53;5074999;28;20261;-25
2024/01/20 09:09:25;;;;;;;11.10;9.90;;;;;;;18.68;40.23;98860.19;5073762;28;20226;-26
2024/01/20 09:11:52;;;;;;;11.47;10.07;;;;;;;18.68;40.42;98871.22;5071700;28;20207;-25
2024/01/20 09:14:18;;;;;;;11.20;10.03;;;;;;;18.67;40.71;98866.03;5070783;28;20250;-25
2024/01/20 09:16:45;;;;;;;10.13;9.13;;;;;;;18.71;40.79;98875.66;5074450;28;20250;-25
2024/01/20 09:19:12;;;;;;;10.60;8.97;;;;;;;18.68;40.71;98862.72;5071166;28;20224;-25
2024/01/20 09:21:39;;;;;;;10.83;9.73;;;;;;;18.72;40.62;98874.84;5068362;28;20206;-25
2024/01/20 09:24:05;;;;;;;12.87;9.80;;;;;;;18.73;40.79;98876.59;5069200;28;20212;-25
2024/01/20 09:26:32;;;;;;;9.93;8.93;;;;;;;18.71;40.96;98879.06;5074914;28;20200;-25
2024/01/20 09:28:59;;;;;;;14.37;9.30;;;;;;;18.70;40.83;98881.50;5069850;28;20220;-25
2024/01/20 09:31:25;;;;;;;10.50;9.10;;;;;;;18.72;41.11;98879.94;5074673;28;20222;-25
2024/01/20 09:33:52;;;;;;;10.80;8.97;;;;;;;18.72;41.06;98872.31;5076043;28;20856;-25
2024/01/20 09:36:19;;;;;;;9.77;8.70;;;;;;;18.70;40.92;98868.78;5073892;28;20200;-27
2024/01/20 09:38:45;;;;;;;11.00;9.13;;;;;;;18.71;41.26;98873.09;5073383;28;20212;-25
2024/01/20 09:41:12;;;;;;;10.70;8.50;;;;;;;18.71;41.60;98880.75;5074651;28;20487;-25
2024/01/20 09:43:39;;;;;;;12.23;8.50;;;;;;;18.69;41.22;98885.75;5072730;28;20307;-28
2024/01/20 09:46:06;;;;;;;9.50;8.50;;;;;;;18.68;41.55;98881.41;5073878;28;20204;-26
2024/01/20 09:48:32;;;;;;;10.10;8.37;;;;;;;18.70;41.62;98881.50;5078606;28;20204;-25
2024/01/20 09:50:59;;;;;;;8.87;7.97;;;;;;;18.73;41.48;98886.78;5069073;28;20304;-26
2024/01/20 09:53:25;;;;;;;9.97;8.70;;;;;;;18.71;41.45;98880.75;5071072;28;20197;-25
2024/01/20 09:55:52;;;;;;;11.43;7.53;;;;;;;18.70;41.23;98874.75;5070128;28;20212;-25
2024/01/20 09:58:19;;;;;;;9.13;7.97;;;;;;;18.72;41.14;98887.59;5067891;28;20830;-26
2024/01/20 10:00:46;;;;;;;10.37;8.80;;;;;;;18.74;40.36;98876.69;5073870;28;20212;-25
2024/01/20 10:03:12;;;;;;;18.60;13.30;;;;;;;18.68;35.58;98878.00;5069112;28;20265;-25
2024/01/20 10:05:39;;;;;;;20.33;14.10;;;;;;;18.58;35.18;98868.91;5088602;28;20196;-25
2024/01/20 10:08:06;;;;;;;16.00;12.80;;;;;;;18.67;36.59;98883.88;5074432;28;20196;-25
2024/01/20 10:10:33;;;;;;;15.83;13.00;;;;;;;18.56;37.51;98872.16;5073929;28;20698;-25
2024/01/20 10:13:02;;;;;;;16.17;12.73;;;;;;;18.66;38.59;98892.28;5074730;28;20197;-25
2024/01/20 10:15:30;;;;;;;14.27;11.63;;;;;;;18.65;39.00;98893.09;5074185;28;20606;-26
2024/01/20 10:18:05;;;;;;;13.07;11.70;;;;;;;18.60;39.53;98884.28;5074299;28;20197;-25
2024/01/20 10:20:35;;;;;;;11.77;10.57;;;;;;;18.63;39.93;98887.00;5074045;28;20284;-26
2024/01/20 10:23:04;;;;;;;11.40;10.30;;;;;;;18.63;39.88;98892.09;5074620;28;20228;-25
2024/01/20 10:25:30;;;;;;;12.00;10.50;;;;;;;18.63;40.23;98895.53;5073808;28;20242;-30
2024/01/20 10:27:57;;;;;;;11.90;10.23;;;;;;;18.66;40.33;98899.94;5073850;28;20522;-25
2024/01/20 10:30:25;;;;;;;11.23;10.07;;;;;;;18.67;40.43;98899.13;5073851;28;20224;-25
2024/01/20 10:32:51;;;;;;;10.30;9.20;;;;;;;18.68;40.55;98898.38;5072613;28;20196;-25
2024/01/20 10:35:34;;;;;;;14.20;10.10;;;;;;;18.69;40.64;98900.13;5073719;28;20200;-28
2024/01/20 10:38:01;;;;;;;10.63;8.97;;;;;;;18.68;40.82;98894.16;5074240;28;20283;-25
2024/01/20 10:40:28;;;;;;;10.73;9.50;;;;;;;18.69;40.85;98882.31;5055678;28;20224;-25
2024/01/20 10:42:55;;;;;;;10.60;8.83;;;;;;;18.73;40.64;98904.63;5073538;28;20192;-25
2024/01/20 10:45:23;;;;;;;10.33;9.33;;;;;;;18.74;40.95;98903.84;5072404;28;20413;-25
2024/01/20 10:48:05;;;;;;;13.90;9.10;;;;;;;18.73;40.90;98897.88;5086390;28;20618;-25
2024/01/20 10:50:41;;;;;;;11.37;9.27;;;;;;;18.72;40.87;98892.69;5074866;28;20223;-25
2024/01/20 10:53:08;;;;;;;10.13;9.03;;;;;;;18.71;40.89;98886.69;5072540;28;20196;-25
2024/01/20 10:55:35;;;;;;;10.67;8.73;;;;;;;18.73;41.21;98894.44;5071884;28;20200;-25
2024/01/20 10:58:03;;;;;;;9.17;8.03;;;;;;;18.72;41.10;98890.13;5056954;28;20228;-25
2024/01/20 11:00:30;;;;;;;10.53;8.33;;;;;;;18.72;41.50;98890.13;5072383;28;20223;-25
2024/01/20 11:02:56;;;;;;;9.40;8.10;;;;;;;18.70;40.92;98894.25;5073428;28;20202;-25
2024/01/20 11:05:23;;;;;;;9.57;8.57;;;;;;;18.71;41.53;98893.47;5073456;28;20220;-25
2024/01/20 11:08:04;;;;;;;9.37;7.90;;;;;;;18.72;41.36;98893.56;5071871;28;20235;-25
2024/01/20 11:10:40;;;;;;;14.37;11.33;;;;;;;18.69;35.22;98892.50;5073060;28;20220;-25
2024/01/20 11:13:10;;;;;;;14.47;12.97;;;;;;;18.57;33.86;98892.63;5071775;28;20254;-25
2024/01/20 11:15:41;;;;;;;15.03;13.43;;;;;;;18.50;32.53;98889.59;5072621;28;20211;-25
2024/01/20 11:18:21;;;;;;;16.77;14.93;;;;;;;18.48;32.54;98896.25;5072821;28;20262;-28
2024/01/20 11:21:01;;;;;;;17.10;14.33;;;;;;;18.48;33.40;98896.25;5070846;28;20228;-27
2024/01/20 11:23:28;;;;;;;17.40;15.07;;;;;;;18.49;33.90;98895.44;5073032;28;20207;-25
2024/01/20 11:25:55;;;;;;;15.20;13.60;;;;;;;18.50;35.21;98894.69;5072483;28;20203;-25
2024/01/20 11:28:30;;;;;;;20.70;13.90;;;;;;;18.49;35.65;98880.19;5067339;28;20618;-25